sensor_id;sensor_type;location;lat;lon;timestamp;P1;durP1;ratioP1;P2;durP2;ratioP2
23470;SDS011;11908;50.806;4.424;2023-11-19T00:00:20;8.63;;;3.95;;
23470;SDS011;11908;50.806;4.424;2023-11-19T00:02:45;14.43;;;4.38;;
23470;SDS011;11908;50.806;4.424;2023-11-19T00:05:12;12.00;;;4.25;;
23470;SDS011;11908;50.806;4.424;2023-11-19T00:07:38;13.63;;;3.97;;
23470;SDS011;11908;50.806;4.424;2023-11-19T00:10:17;13.38;;;3.83;;
23470;SDS011;11908;50.806;4.424;2023-11-19T00:12:49;10.95;;;3.55;;
23470;SDS011;11908;50.806;4.424;2023-11-19T00:15:15;10.32;;;3.50;;
23470;SDS011;11908;50.806;4.424;2023-11-19T00:17:44;11.65;;;3.65;;
23470;SDS011;11908;50.806;4.424;2023-11-19T00:20:17;8.77;;;3.28;;
23470;SDS011;11908;50.806;4.424;2023-11-19T00:22:44;9.73;;;3.10;;
23470;SDS011;11908;50.806;4.424;2023-11-19T00:25:13;12.05;;;3.28;;
23470;SDS011;11908;50.806;4.424;2023-11-19T00:27:39;21.50;;;4.03;;
23470;SDS011;11908;50.806;4.424;2023-11-19T00:30:05;14.43;;;3.65;;
23470;SDS011;11908;50.806;4.424;2023-11-19T00:32:32;14.93;;;3.45;;
23470;SDS011;11908;50.806;4.424;2023-11-19T00:34:58;16.00;;;4.18;;
23470;SDS011;11908;50.806;4.424;2023-11-19T00:37:23;12.15;;;3.47;;
23470;SDS011;11908;50.806;4.424;2023-11-19T00:39:49;16.75;;;3.55;;
23470;SDS011;11908;50.806;4.424;2023-11-19T00:42:15;16.17;;;3.25;;
23470;SDS011;11908;50.806;4.424;2023-11-19T00:44:40;11.63;;;3.17;;
23470;SDS011;11908;50.806;4.424;2023-11-19T00:47:06;13.52;;;3.03;;
23470;SDS011;11908;50.806;4.424;2023-11-19T00:49:32;16.98;;;3.45;;
23470;SDS011;11908;50.806;4.424;2023-11-19T00:51:58;16.67;;;3.78;;
23470;SDS011;11908;50.806;4.424;2023-11-19T00:54:24;18.20;;;3.65;;
23470;SDS011;11908;50.806;4.424;2023-11-19T00:56:53;20.10;;;4.28;;
23470;SDS011;11908;50.806;4.424;2023-11-19T00:59:19;16.48;;;3.40;;
23470;SDS011;11908;50.806;4.424;2023-11-19T01:01:45;11.20;;;2.75;;
23470;SDS011;11908;50.806;4.424;2023-11-19T01:04:13;12.95;;;3.03;;
23470;SDS011;11908;50.806;4.424;2023-11-19T01:06:39;15.13;;;3.58;;
23470;SDS011;11908;50.806;4.424;2023-11-19T01:09:05;15.10;;;3.70;;
23470;SDS011;11908;50.806;4.424;2023-11-19T01:11:31;17.95;;;4.05;;
23470;SDS011;11908;50.806;4.424;2023-11-19T01:13:56;18.13;;;3.72;;
23470;SDS011;11908;50.806;4.424;2023-11-19T01:16:22;14.45;;;2.80;;
23470;SDS011;11908;50.806;4.424;2023-11-19T01:18:48;19.38;;;3.28;;
23470;SDS011;11908;50.806;4.424;2023-11-19T01:21:14;14.00;;;3.15;;
23470;SDS011;11908;50.806;4.424;2023-11-19T01:23:40;21.00;;;4.05;;
23470;SDS011;11908;50.806;4.424;2023-11-19T01:26:08;9.10;;;2.88;;
23470;SDS011;11908;50.806;4.424;2023-11-19T01:28:38;17.55;;;3.30;;
23470;SDS011;11908;50.806;4.424;2023-11-19T01:31:11;15.30;;;2.85;;
23470;SDS011;11908;50.806;4.424;2023-11-19T01:33:39;19.67;;;3.50;;
23470;SDS011;11908;50.806;4.424;2023-11-19T01:36:06;19.98;;;3.55;;
23470;SDS011;11908;50.806;4.424;2023-11-19T01:38:33;25.58;;;3.58;;
23470;SDS011;11908;50.806;4.424;2023-11-19T01:40:59;14.27;;;3.05;;
23470;SDS011;11908;50.806;4.424;2023-11-19T01:43:46;16.48;;;2.80;;
23470;SDS011;11908;50.806;4.424;2023-11-19T01:46:12;19.17;;;3.47;;
23470;SDS011;11908;50.806;4.424;2023-11-19T01:48:42;18.42;;;3.47;;
23470;SDS011;11908;50.806;4.424;2023-11-19T01:51:10;18.50;;;3.00;;
23470;SDS011;11908;50.806;4.424;2023-11-19T01:53:37;19.90;;;3.40;;
23470;SDS011;11908;50.806;4.424;2023-11-19T01:56:05;18.80;;;3.40;;
23470;SDS011;11908;50.806;4.424;2023-11-19T01:58:35;18.70;;;3.75;;
23470;SDS011;11908;50.806;4.424;2023-11-19T02:01:01;20.25;;;3.33;;
23470;SDS011;11908;50.806;4.424;2023-11-19T02:03:29;17.58;;;2.85;;
23470;SDS011;11908;50.806;4.424;2023-11-19T02:05:58;27.30;;;3.72;;
23470;SDS011;11908;50.806;4.424;2023-11-19T02:08:25;21.77;;;3.65;;
23470;SDS011;11908;50.806;4.424;2023-11-19T02:10:51;19.67;;;3.15;;
23470;SDS011;11908;50.806;4.424;2023-11-19T02:13:17;18.08;;;3.63;;
23470;SDS011;11908;50.806;4.424;2023-11-19T02:15:43;19.60;;;3.45;;
23470;SDS011;11908;50.806;4.424;2023-11-19T02:18:19;24.10;;;5.40;;
23470;SDS011;11908;50.806;4.424;2023-11-19T02:20:52;18.53;;;3.80;;
23470;SDS011;11908;50.806;4.424;2023-11-19T02:23:22;17.90;;;3.63;;
23470;SDS011;11908;50.806;4.424;2023-11-19T02:28:55;36.80;;;4.20;;
23470;SDS011;11908;50.806;4.424;2023-11-19T02:31:21;20.23;;;3.45;;
23470;SDS011;11908;50.806;4.424;2023-11-19T02:33:48;24.70;;;3.38;;
23470;SDS011;11908;50.806;4.424;2023-11-19T02:36:15;22.83;;;3.88;;
23470;SDS011;11908;50.806;4.424;2023-11-19T02:38:41;22.50;;;3.30;;
23470;SDS011;11908;50.806;4.424;2023-11-19T02:41:07;16.80;;;3.15;;
23470;SDS011;11908;50.806;4.424;2023-11-19T02:43:34;24.48;;;3.90;;
23470;SDS011;11908;50.806;4.424;2023-11-19T02:46:02;25.15;;;3.58;;
23470;SDS011;11908;50.806;4.424;2023-11-19T02:48:32;21.50;;;3.33;;
23470;SDS011;11908;50.806;4.424;2023-11-19T02:51:00;24.45;;;2.97;;
23470;SDS011;11908;50.806;4.424;2023-11-19T02:53:28;17.70;;;3.53;;
23470;SDS011;11908;50.806;4.424;2023-11-19T02:55:54;23.25;;;3.63;;
23470;SDS011;11908;50.806;4.424;2023-11-19T02:58:26;16.92;;;4.35;;
23470;SDS011;11908;50.806;4.424;2023-11-19T03:00:53;23.27;;;4.35;;
23470;SDS011;11908;50.806;4.424;2023-11-19T03:03:23;27.30;;;4.55;;
23470;SDS011;11908;50.806;4.424;2023-11-19T03:05:54;16.73;;;3.47;;
23470;SDS011;11908;50.806;4.424;2023-11-19T03:08:20;19.40;;;4.18;;
23470;SDS011;11908;50.806;4.424;2023-11-19T03:10:47;21.10;;;3.53;;
23470;SDS011;11908;50.806;4.424;2023-11-19T03:13:13;27.02;;;3.58;;
23470;SDS011;11908;50.806;4.424;2023-11-19T03:15:40;21.13;;;4.13;;
23470;SDS011;11908;50.806;4.424;2023-11-19T03:18:06;25.08;;;3.97;;
23470;SDS011;11908;50.806;4.424;2023-11-19T03:20:32;20.92;;;4.00;;
23470;SDS011;11908;50.806;4.424;2023-11-19T03:22:58;22.70;;;3.90;;
23470;SDS011;11908;50.806;4.424;2023-11-19T03:25:25;21.10;;;3.55;;
23470;SDS011;11908;50.806;4.424;2023-11-19T03:27:59;20.58;;;3.70;;
23470;SDS011;11908;50.806;4.424;2023-11-19T03:30:28;26.85;;;3.92;;
23470;SDS011;11908;50.806;4.424;2023-11-19T03:32:55;23.50;;;3.90;;
23470;SDS011;11908;50.806;4.424;2023-11-19T03:35:21;22.73;;;3.17;;
23470;SDS011;11908;50.806;4.424;2023-11-19T03:37:48;21.90;;;3.15;;
23470;SDS011;11908;50.806;4.424;2023-11-19T03:40:14;25.40;;;4.18;;
23470;SDS011;11908;50.806;4.424;2023-11-19T03:42:39;23.85;;;3.83;;
23470;SDS011;11908;50.806;4.424;2023-11-19T03:45:08;30.30;;;4.10;;
23470;SDS011;11908;50.806;4.424;2023-11-19T03:47:35;27.45;;;4.50;;
23470;SDS011;11908;50.806;4.424;2023-11-19T03:50:01;27.63;;;3.35;;
23470;SDS011;11908;50.806;4.424;2023-11-19T03:52:27;25.08;;;4.03;;
23470;SDS011;11908;50.806;4.424;2023-11-19T03:54:54;27.63;;;4.20;;
23470;SDS011;11908;50.806;4.424;2023-11-19T03:57:20;25.65;;;4.03;;
23470;SDS011;11908;50.806;4.424;2023-11-19T03:59:46;28.55;;;4.13;;
23470;SDS011;11908;50.806;4.424;2023-11-19T04:02:12;29.45;;;4.10;;
23470;SDS011;11908;50.806;4.424;2023-11-19T04:04:38;23.60;;;4.45;;
23470;SDS011;11908;50.806;4.424;2023-11-19T04:07:04;19.25;;;4.10;;
23470;SDS011;11908;50.806;4.424;2023-11-19T04:09:30;23.17;;;4.22;;
23470;SDS011;11908;50.806;4.424;2023-11-19T04:11:58;32.67;;;4.90;;
23470;SDS011;11908;50.806;4.424;2023-11-19T04:14:25;16.63;;;3.75;;
23470;SDS011;11908;50.806;4.424;2023-11-19T04:16:51;21.38;;;3.78;;
23470;SDS011;11908;50.806;4.424;2023-11-19T04:19:17;20.42;;;4.22;;
23470;SDS011;11908;50.806;4.424;2023-11-19T04:21:43;30.13;;;4.35;;
23470;SDS011;11908;50.806;4.424;2023-11-19T04:24:09;21.27;;;3.65;;
23470;SDS011;11908;50.806;4.424;2023-11-19T04:26:44;37.63;;;3.75;;
23470;SDS011;11908;50.806;4.424;2023-11-19T04:29:14;20.02;;;4.53;;
23470;SDS011;11908;50.806;4.424;2023-11-19T04:31:42;30.70;;;4.53;;
23470;SDS011;11908;50.806;4.424;2023-11-19T04:34:11;27.75;;;4.97;;
23470;SDS011;11908;50.806;4.424;2023-11-19T04:36:37;33.22;;;5.03;;
23470;SDS011;11908;50.806;4.424;2023-11-19T04:39:03;24.05;;;4.15;;
23470;SDS011;11908;50.806;4.424;2023-11-19T04:41:50;30.40;;;4.28;;
23470;SDS011;11908;50.806;4.424;2023-11-19T04:44:20;25.70;;;4.15;;
23470;SDS011;11908;50.806;4.424;2023-11-19T04:46:46;31.38;;;4.97;;
23470;SDS011;11908;50.806;4.424;2023-11-19T04:49:12;32.97;;;4.65;;
23470;SDS011;11908;50.806;4.424;2023-11-19T04:51:39;29.60;;;4.68;;
23470;SDS011;11908;50.806;4.424;2023-11-19T04:54:06;36.78;;;5.20;;
23470;SDS011;11908;50.806;4.424;2023-11-19T04:56:33;28.58;;;4.90;;
23470;SDS011;11908;50.806;4.424;2023-11-19T04:59:01;25.42;;;4.22;;
23470;SDS011;11908;50.806;4.424;2023-11-19T05:01:27;30.77;;;5.28;;
23470;SDS011;11908;50.806;4.424;2023-11-19T05:03:52;21.77;;;3.45;;
23470;SDS011;11908;50.806;4.424;2023-11-19T05:06:18;27.13;;;4.88;;
23470;SDS011;11908;50.806;4.424;2023-11-19T05:08:44;31.73;;;4.90;;
23470;SDS011;11908;50.806;4.424;2023-11-19T05:11:11;28.58;;;4.90;;
23470;SDS011;11908;50.806;4.424;2023-11-19T05:13:43;23.88;;;4.25;;
23470;SDS011;11908;50.806;4.424;2023-11-19T05:16:10;32.00;;;3.88;;
23470;SDS011;11908;50.806;4.424;2023-11-19T05:18:39;25.58;;;4.18;;
23470;SDS011;11908;50.806;4.424;2023-11-19T05:21:05;33.42;;;4.63;;
23470;SDS011;11908;50.806;4.424;2023-11-19T05:23:31;32.15;;;4.80;;
23470;SDS011;11908;50.806;4.424;2023-11-19T05:25:59;33.42;;;5.85;;
23470;SDS011;11908;50.806;4.424;2023-11-19T05:28:25;23.73;;;4.22;;
23470;SDS011;11908;50.806;4.424;2023-11-19T05:30:51;29.08;;;4.88;;
23470;SDS011;11908;50.806;4.424;2023-11-19T05:33:16;31.13;;;4.72;;
23470;SDS011;11908;50.806;4.424;2023-11-19T05:35:42;28.67;;;5.28;;
23470;SDS011;11908;50.806;4.424;2023-11-19T05:38:08;32.45;;;4.55;;
23470;SDS011;11908;50.806;4.424;2023-11-19T05:40:34;30.27;;;5.35;;
23470;SDS011;11908;50.806;4.424;2023-11-19T05:43:00;25.95;;;5.10;;
23470;SDS011;11908;50.806;4.424;2023-11-19T05:45:26;37.03;;;5.38;;
23470;SDS011;11908;50.806;4.424;2023-11-19T05:47:52;40.10;;;4.95;;
23470;SDS011;11908;50.806;4.424;2023-11-19T05:50:18;38.38;;;6.45;;
23470;SDS011;11908;50.806;4.424;2023-11-19T05:52:44;30.65;;;5.10;;
23470;SDS011;11908;50.806;4.424;2023-11-19T05:55:10;31.23;;;5.45;;
23470;SDS011;11908;50.806;4.424;2023-11-19T05:57:38;32.05;;;4.97;;
23470;SDS011;11908;50.806;4.424;2023-11-19T06:00:05;31.08;;;4.15;;
23470;SDS011;11908;50.806;4.424;2023-11-19T06:02:33;31.27;;;4.85;;
23470;SDS011;11908;50.806;4.424;2023-11-19T06:04:59;38.20;;;5.80;;
23470;SDS011;11908;50.806;4.424;2023-11-19T06:07:26;34.65;;;5.78;;
23470;SDS011;11908;50.806;4.424;2023-11-19T06:09:53;33.90;;;5.43;;
23470;SDS011;11908;50.806;4.424;2023-11-19T06:12:18;38.47;;;5.18;;
23470;SDS011;11908;50.806;4.424;2023-11-19T06:14:44;35.15;;;5.43;;
23470;SDS011;11908;50.806;4.424;2023-11-19T06:17:10;34.13;;;5.68;;
23470;SDS011;11908;50.806;4.424;2023-11-19T06:19:36;34.17;;;5.10;;
23470;SDS011;11908;50.806;4.424;2023-11-19T06:22:03;35.45;;;6.10;;
23470;SDS011;11908;50.806;4.424;2023-11-19T06:24:29;38.10;;;5.40;;
23470;SDS011;11908;50.806;4.424;2023-11-19T06:26:54;35.13;;;4.82;;
23470;SDS011;11908;50.806;4.424;2023-11-19T06:29:20;30.88;;;4.70;;
23470;SDS011;11908;50.806;4.424;2023-11-19T06:31:46;30.75;;;4.80;;
23470;SDS011;11908;50.806;4.424;2023-11-19T06:34:13;36.70;;;4.82;;
23470;SDS011;11908;50.806;4.424;2023-11-19T06:36:39;38.85;;;5.07;;
23470;SDS011;11908;50.806;4.424;2023-11-19T06:39:06;30.95;;;4.47;;
23470;SDS011;11908;50.806;4.424;2023-11-19T06:41:31;29.70;;;5.00;;
23470;SDS011;11908;50.806;4.424;2023-11-19T06:43:57;30.73;;;5.20;;
23470;SDS011;11908;50.806;4.424;2023-11-19T06:46:23;30.67;;;5.03;;
23470;SDS011;11908;50.806;4.424;2023-11-19T06:48:49;38.22;;;5.93;;
23470;SDS011;11908;50.806;4.424;2023-11-19T06:51:14;33.38;;;5.93;;
23470;SDS011;11908;50.806;4.424;2023-11-19T06:53:42;37.38;;;5.50;;
23470;SDS011;11908;50.806;4.424;2023-11-19T06:56:21;38.75;;;6.15;;
23470;SDS011;11908;50.806;4.424;2023-11-19T06:58:48;34.15;;;5.07;;
23470;SDS011;11908;50.806;4.424;2023-11-19T07:01:15;32.70;;;5.50;;
23470;SDS011;11908;50.806;4.424;2023-11-19T07:03:41;33.78;;;5.40;;
23470;SDS011;11908;50.806;4.424;2023-11-19T07:06:07;31.48;;;4.50;;
23470;SDS011;11908;50.806;4.424;2023-11-19T07:08:33;28.33;;;4.38;;
23470;SDS011;11908;50.806;4.424;2023-11-19T07:10:59;39.03;;;5.22;;
23470;SDS011;11908;50.806;4.424;2023-11-19T07:13:25;37.28;;;4.68;;
23470;SDS011;11908;50.806;4.424;2023-11-19T07:15:53;32.83;;;5.22;;
23470;SDS011;11908;50.806;4.424;2023-11-19T07:18:21;28.95;;;5.53;;
23470;SDS011;11908;50.806;4.424;2023-11-19T07:20:47;28.83;;;4.90;;
23470;SDS011;11908;50.806;4.424;2023-11-19T07:23:13;33.80;;;5.00;;
23470;SDS011;11908;50.806;4.424;2023-11-19T07:25:42;35.63;;;5.55;;
23470;SDS011;11908;50.806;4.424;2023-11-19T07:28:11;30.55;;;5.68;;
23470;SDS011;11908;50.806;4.424;2023-11-19T07:30:38;28.15;;;4.78;;
23470;SDS011;11908;50.806;4.424;2023-11-19T07:33:04;40.38;;;5.07;;
23470;SDS011;11908;50.806;4.424;2023-11-19T07:35:29;32.10;;;5.00;;
23470;SDS011;11908;50.806;4.424;2023-11-19T07:37:56;32.90;;;5.22;;
23470;SDS011;11908;50.806;4.424;2023-11-19T07:40:22;30.13;;;5.82;;
23470;SDS011;11908;50.806;4.424;2023-11-19T07:42:51;30.17;;;5.50;;
23470;SDS011;11908;50.806;4.424;2023-11-19T07:45:17;36.08;;;6.65;;
23470;SDS011;11908;50.806;4.424;2023-11-19T07:47:43;30.50;;;5.28;;
23470;SDS011;11908;50.806;4.424;2023-11-19T07:50:10;29.27;;;4.95;;
23470;SDS011;11908;50.806;4.424;2023-11-19T07:52:36;33.47;;;5.90;;
23470;SDS011;11908;50.806;4.424;2023-11-19T07:55:02;34.30;;;5.30;;
23470;SDS011;11908;50.806;4.424;2023-11-19T07:57:28;25.33;;;4.80;;
23470;SDS011;11908;50.806;4.424;2023-11-19T07:59:56;34.10;;;4.93;;
23470;SDS011;11908;50.806;4.424;2023-11-19T08:02:22;31.08;;;5.32;;
23470;SDS011;11908;50.806;4.424;2023-11-19T08:04:49;34.15;;;5.22;;
23470;SDS011;11908;50.806;4.424;2023-11-19T08:07:17;28.63;;;5.00;;
23470;SDS011;11908;50.806;4.424;2023-11-19T08:09:47;22.73;;;4.47;;
23470;SDS011;11908;50.806;4.424;2023-11-19T08:12:12;26.08;;;4.38;;
23470;SDS011;11908;50.806;4.424;2023-11-19T08:14:42;26.48;;;4.68;;
23470;SDS011;11908;50.806;4.424;2023-11-19T08:17:09;21.92;;;3.78;;
23470;SDS011;11908;50.806;4.424;2023-11-19T08:19:34;30.92;;;5.13;;
23470;SDS011;11908;50.806;4.424;2023-11-19T08:22:00;29.92;;;4.50;;
23470;SDS011;11908;50.806;4.424;2023-11-19T08:24:26;30.00;;;4.18;;
23470;SDS011;11908;50.806;4.424;2023-11-19T08:26:51;27.83;;;4.85;;
23470;SDS011;11908;50.806;4.424;2023-11-19T08:29:17;25.95;;;5.22;;
23470;SDS011;11908;50.806;4.424;2023-11-19T08:31:43;28.27;;;4.85;;
23470;SDS011;11908;50.806;4.424;2023-11-19T08:34:08;30.73;;;5.38;;
23470;SDS011;11908;50.806;4.424;2023-11-19T08:36:34;32.55;;;5.18;;
23470;SDS011;11908;50.806;4.424;2023-11-19T08:39:00;22.92;;;4.35;;
23470;SDS011;11908;50.806;4.424;2023-11-19T08:41:26;28.17;;;5.03;;
23470;SDS011;11908;50.806;4.424;2023-11-19T08:43:52;26.95;;;4.43;;
23470;SDS011;11908;50.806;4.424;2023-11-19T08:46:17;29.15;;;5.10;;
23470;SDS011;11908;50.806;4.424;2023-11-19T08:48:44;29.75;;;5.32;;
23470;SDS011;11908;50.806;4.424;2023-11-19T08:51:10;31.80;;;4.90;;
23470;SDS011;11908;50.806;4.424;2023-11-19T08:53:37;27.33;;;3.97;;
23470;SDS011;11908;50.806;4.424;2023-11-19T08:56:02;22.70;;;5.82;;
23470;SDS011;11908;50.806;4.424;2023-11-19T08:58:28;32.70;;;4.63;;
23470;SDS011;11908;50.806;4.424;2023-11-19T09:00:55;25.55;;;4.72;;
23470;SDS011;11908;50.806;4.424;2023-11-19T09:03:21;24.35;;;5.07;;
23470;SDS011;11908;50.806;4.424;2023-11-19T09:05:47;27.98;;;4.72;;
23470;SDS011;11908;50.806;4.424;2023-11-19T09:08:12;21.10;;;4.03;;
23470;SDS011;11908;50.806;4.424;2023-11-19T09:10:38;23.23;;;4.10;;
23470;SDS011;11908;50.806;4.424;2023-11-19T09:13:04;29.88;;;4.63;;
23470;SDS011;11908;50.806;4.424;2023-11-19T09:15:29;22.50;;;4.30;;
23470;SDS011;11908;50.806;4.424;2023-11-19T09:17:55;18.95;;;3.90;;
23470;SDS011;11908;50.806;4.424;2023-11-19T09:20:21;22.92;;;3.72;;
23470;SDS011;11908;50.806;4.424;2023-11-19T09:22:47;25.45;;;4.32;;
23470;SDS011;11908;50.806;4.424;2023-11-19T09:25:12;18.45;;;4.22;;
23470;SDS011;11908;50.806;4.424;2023-11-19T09:27:41;28.80;;;4.00;;
23470;SDS011;11908;50.806;4.424;2023-11-19T09:30:08;18.95;;;3.60;;
23470;SDS011;11908;50.806;4.424;2023-11-19T09:32:34;18.67;;;4.00;;
23470;SDS011;11908;50.806;4.424;2023-11-19T09:35:00;19.33;;;4.30;;
23470;SDS011;11908;50.806;4.424;2023-11-19T09:37:27;13.88;;;3.13;;
23470;SDS011;11908;50.806;4.424;2023-11-19T09:39:53;19.15;;;4.03;;
23470;SDS011;11908;50.806;4.424;2023-11-19T09:42:19;22.92;;;4.63;;
23470;SDS011;11908;50.806;4.424;2023-11-19T09:44:44;22.05;;;3.72;;
23470;SDS011;11908;50.806;4.424;2023-11-19T09:47:11;21.10;;;4.22;;
23470;SDS011;11908;50.806;4.424;2023-11-19T09:49:38;15.65;;;3.88;;
23470;SDS011;11908;50.806;4.424;2023-11-19T09:52:04;21.42;;;4.00;;
23470;SDS011;11908;50.806;4.424;2023-11-19T09:54:30;16.15;;;3.60;;
23470;SDS011;11908;50.806;4.424;2023-11-19T09:56:56;19.73;;;4.65;;
23470;SDS011;11908;50.806;4.424;2023-11-19T09:59:28;20.10;;;4.32;;
23470;SDS011;11908;50.806;4.424;2023-11-19T10:01:55;16.95;;;4.22;;
23470;SDS011;11908;50.806;4.424;2023-11-19T10:04:21;21.02;;;3.88;;
23470;SDS011;11908;50.806;4.424;2023-11-19T10:06:48;22.15;;;4.10;;
23470;SDS011;11908;50.806;4.424;2023-11-19T10:09:15;19.98;;;3.97;;
23470;SDS011;11908;50.806;4.424;2023-11-19T10:11:40;22.17;;;4.25;;
23470;SDS011;11908;50.806;4.424;2023-11-19T10:14:06;20.08;;;4.28;;
23470;SDS011;11908;50.806;4.424;2023-11-19T10:16:34;26.15;;;3.40;;
23470;SDS011;11908;50.806;4.424;2023-11-19T10:19:00;23.13;;;3.80;;
23470;SDS011;11908;50.806;4.424;2023-11-19T10:21:26;20.17;;;3.60;;
23470;SDS011;11908;50.806;4.424;2023-11-19T10:23:56;26.20;;;4.68;;
23470;SDS011;11908;50.806;4.424;2023-11-19T10:26:23;27.25;;;5.55;;
23470;SDS011;11908;50.806;4.424;2023-11-19T10:28:49;19.70;;;3.95;;
23470;SDS011;11908;50.806;4.424;2023-11-19T10:31:15;21.85;;;3.78;;
23470;SDS011;11908;50.806;4.424;2023-11-19T10:33:42;21.63;;;4.28;;
23470;SDS011;11908;50.806;4.424;2023-11-19T10:36:11;14.18;;;3.65;;
23470;SDS011;11908;50.806;4.424;2023-11-19T10:38:38;17.88;;;3.97;;
23470;SDS011;11908;50.806;4.424;2023-11-19T10:41:05;17.08;;;3.45;;
23470;SDS011;11908;50.806;4.424;2023-11-19T10:43:31;16.27;;;3.90;;
23470;SDS011;11908;50.806;4.424;2023-11-19T10:46:10;15.23;;;3.35;;
23470;SDS011;11908;50.806;4.424;2023-11-19T10:48:38;15.23;;;3.03;;
23470;SDS011;11908;50.806;4.424;2023-11-19T10:51:05;15.35;;;3.28;;
23470;SDS011;11908;50.806;4.424;2023-11-19T10:53:36;12.73;;;2.90;;
23470;SDS011;11908;50.806;4.424;2023-11-19T10:56:06;17.63;;;3.60;;
23470;SDS011;11908;50.806;4.424;2023-11-19T10:58:42;18.85;;;3.38;;
23470;SDS011;11908;50.806;4.424;2023-11-19T11:01:13;18.63;;;4.07;;
23470;SDS011;11908;50.806;4.424;2023-11-19T11:03:43;18.08;;;3.53;;
23470;SDS011;11908;50.806;4.424;2023-11-19T11:06:11;18.15;;;3.53;;
23470;SDS011;11908;50.806;4.424;2023-11-19T11:08:39;15.35;;;3.30;;
23470;SDS011;11908;50.806;4.424;2023-11-19T11:11:05;25.75;;;4.88;;
23470;SDS011;11908;50.806;4.424;2023-11-19T11:13:32;18.92;;;3.85;;
23470;SDS011;11908;50.806;4.424;2023-11-19T11:15:59;23.67;;;4.63;;
23470;SDS011;11908;50.806;4.424;2023-11-19T11:18:25;21.10;;;4.35;;
23470;SDS011;11908;50.806;4.424;2023-11-19T11:21:15;21.20;;;4.40;;
23470;SDS011;11908;50.806;4.424;2023-11-19T11:28:43;20.00;;;4.60;;
23470;SDS011;11908;50.806;4.424;2023-11-19T11:36:49;22.48;;;4.18;;
23470;SDS011;11908;50.806;4.424;2023-11-19T11:39:23;24.40;;;5.40;;
23470;SDS011;11908;50.806;4.424;2023-11-19T11:42:35;23.02;;;4.32;;
23470;SDS011;11908;50.806;4.424;2023-11-19T11:53:26;25.65;;;4.63;;
23470;SDS011;11908;50.806;4.424;2023-11-19T11:55:37;29.38;;;5.30;;
23470;SDS011;11908;50.806;4.424;2023-11-19T11:58:20;19.23;;;4.15;;
23470;SDS011;11908;50.806;4.424;2023-11-19T12:00:47;19.08;;;4.97;;
23470;SDS011;11908;50.806;4.424;2023-11-19T12:03:14;21.23;;;4.20;;
23470;SDS011;11908;50.806;4.424;2023-11-19T12:05:40;23.65;;;4.50;;
23470;SDS011;11908;50.806;4.424;2023-11-19T12:08:09;20.20;;;4.43;;
23470;SDS011;11908;50.806;4.424;2023-11-19T12:10:58;24.30;;;3.50;;
23470;SDS011;11908;50.806;4.424;2023-11-19T12:13:23;18.25;;;3.60;;
23470;SDS011;11908;50.806;4.424;2023-11-19T12:18:23;17.42;;;4.15;;
23470;SDS011;11908;50.806;4.424;2023-11-19T12:20:49;14.25;;;2.85;;
23470;SDS011;11908;50.806;4.424;2023-11-19T12:23:15;18.05;;;3.22;;
23470;SDS011;11908;50.806;4.424;2023-11-19T12:25:41;18.58;;;3.22;;
23470;SDS011;11908;50.806;4.424;2023-11-19T12:28:11;20.73;;;3.30;;
23470;SDS011;11908;50.806;4.424;2023-11-19T12:30:38;21.02;;;3.72;;
23470;SDS011;11908;50.806;4.424;2023-11-19T12:33:10;24.58;;;4.13;;
23470;SDS011;11908;50.806;4.424;2023-11-19T12:35:40;22.05;;;4.07;;
23470;SDS011;11908;50.806;4.424;2023-11-19T12:38:07;18.90;;;3.78;;
23470;SDS011;11908;50.806;4.424;2023-11-19T12:40:43;18.65;;;3.80;;
23470;SDS011;11908;50.806;4.424;2023-11-19T12:43:08;16.85;;;3.90;;
23470;SDS011;11908;50.806;4.424;2023-11-19T12:45:34;27.38;;;4.55;;
23470;SDS011;11908;50.806;4.424;2023-11-19T12:48:04;24.48;;;4.75;;
23470;SDS011;11908;50.806;4.424;2023-11-19T12:50:55;19.45;;;4.03;;
23470;SDS011;11908;50.806;4.424;2023-11-19T12:53:26;24.10;;;4.10;;
23470;SDS011;11908;50.806;4.424;2023-11-19T12:55:54;26.08;;;4.07;;
23470;SDS011;11908;50.806;4.424;2023-11-19T12:58:33;24.52;;;5.28;;
23470;SDS011;11908;50.806;4.424;2023-11-19T13:01:00;21.08;;;5.72;;
23470;SDS011;11908;50.806;4.424;2023-11-19T13:03:30;22.08;;;4.57;;
23470;SDS011;11908;50.806;4.424;2023-11-19T13:08:46;26.05;;;4.55;;
23470;SDS011;11908;50.806;4.424;2023-11-19T13:11:34;24.65;;;4.35;;
23470;SDS011;11908;50.806;4.424;2023-11-19T13:16:29;18.35;;;3.75;;
23470;SDS011;11908;50.806;4.424;2023-11-19T13:18:55;19.48;;;3.85;;
23470;SDS011;11908;50.806;4.424;2023-11-19T13:21:20;25.90;;;4.07;;
23470;SDS011;11908;50.806;4.424;2023-11-19T13:23:46;18.33;;;4.85;;
23470;SDS011;11908;50.806;4.424;2023-11-19T13:26:12;25.67;;;5.10;;
23470;SDS011;11908;50.806;4.424;2023-11-19T13:28:38;22.63;;;4.18;;
23470;SDS011;11908;50.806;4.424;2023-11-19T13:31:03;15.23;;;3.50;;
23470;SDS011;11908;50.806;4.424;2023-11-19T13:33:29;28.15;;;3.42;;
23470;SDS011;11908;50.806;4.424;2023-11-19T13:35:55;20.40;;;4.13;;
23470;SDS011;11908;50.806;4.424;2023-11-19T13:38:22;21.65;;;4.10;;
23470;SDS011;11908;50.806;4.424;2023-11-19T13:40:51;25.98;;;4.20;;
23470;SDS011;11908;50.806;4.424;2023-11-19T13:43:16;26.73;;;4.63;;
23470;SDS011;11908;50.806;4.424;2023-11-19T13:45:42;19.60;;;4.18;;
23470;SDS011;11908;50.806;4.424;2023-11-19T13:48:08;22.02;;;4.25;;
23470;SDS011;11908;50.806;4.424;2023-11-19T13:50:34;21.23;;;4.07;;
23470;SDS011;11908;50.806;4.424;2023-11-19T13:53:00;23.88;;;4.72;;
23470;SDS011;11908;50.806;4.424;2023-11-19T13:55:25;26.27;;;4.25;;
23470;SDS011;11908;50.806;4.424;2023-11-19T13:57:51;22.67;;;4.68;;
23470;SDS011;11908;50.806;4.424;2023-11-19T14:00:17;24.27;;;4.43;;
23470;SDS011;11908;50.806;4.424;2023-11-19T14:02:45;21.67;;;4.50;;
23470;SDS011;11908;50.806;4.424;2023-11-19T14:05:12;21.20;;;4.50;;
23470;SDS011;11908;50.806;4.424;2023-11-19T14:07:39;29.25;;;4.82;;
23470;SDS011;11908;50.806;4.424;2023-11-19T14:10:05;26.27;;;5.03;;
23470;SDS011;11908;50.806;4.424;2023-11-19T14:12:32;18.17;;;4.45;;
23470;SDS011;11908;50.806;4.424;2023-11-19T14:14:58;26.23;;;5.00;;
23470;SDS011;11908;50.806;4.424;2023-11-19T14:17:25;28.88;;;4.82;;
23470;SDS011;11908;50.806;4.424;2023-11-19T14:19:51;22.02;;;4.22;;
23470;SDS011;11908;50.806;4.424;2023-11-19T14:22:16;25.95;;;6.32;;
23470;SDS011;11908;50.806;4.424;2023-11-19T14:24:42;28.08;;;5.13;;
23470;SDS011;11908;50.806;4.424;2023-11-19T14:27:11;20.10;;;3.97;;
23470;SDS011;11908;50.806;4.424;2023-11-19T14:29:37;19.00;;;4.28;;
23470;SDS011;11908;50.806;4.424;2023-11-19T14:32:03;25.60;;;4.68;;
23470;SDS011;11908;50.806;4.424;2023-11-19T14:34:29;25.35;;;4.72;;
23470;SDS011;11908;50.806;4.424;2023-11-19T14:36:56;26.33;;;4.50;;
23470;SDS011;11908;50.806;4.424;2023-11-19T14:39:22;26.05;;;4.95;;
23470;SDS011;11908;50.806;4.424;2023-11-19T14:41:47;24.00;;;3.78;;
23470;SDS011;11908;50.806;4.424;2023-11-19T14:44:14;28.70;;;5.25;;
23470;SDS011;11908;50.806;4.424;2023-11-19T14:46:40;42.28;;;17.33;;
23470;SDS011;11908;50.806;4.424;2023-11-19T14:49:06;34.10;;;4.53;;
23470;SDS011;11908;50.806;4.424;2023-11-19T14:51:37;24.48;;;4.25;;
23470;SDS011;11908;50.806;4.424;2023-11-19T14:54:12;28.58;;;4.38;;
23470;SDS011;11908;50.806;4.424;2023-11-19T14:56:52;27.88;;;4.22;;
23470;SDS011;11908;50.806;4.424;2023-11-19T14:59:36;20.40;;;3.90;;
23470;SDS011;11908;50.806;4.424;2023-11-19T15:02:02;29.92;;;5.20;;
23470;SDS011;11908;50.806;4.424;2023-11-19T15:04:34;24.15;;;4.05;;
23470;SDS011;11908;50.806;4.424;2023-11-19T15:07:00;28.45;;;4.22;;